sensor_id;sensor_type;location;lat;lon;timestamp;P1;durP1;ratioP1;P2;durP2;ratioP2
39032;SDS011;24794;51.982;5.878;2023-04-24T00:00:25;9.00;;;6.15;;
39032;SDS011;24794;51.982;5.878;2023-04-24T00:01:25;7.68;;;5.95;;
39032;SDS011;24794;51.982;5.878;2023-04-24T00:02:26;9.48;;;6.45;;
39032;SDS011;24794;51.982;5.878;2023-04-24T00:03:27;7.38;;;5.72;;
39032;SDS011;24794;51.982;5.878;2023-04-24T00:04:28;8.13;;;6.60;;
39032;SDS011;24794;51.982;5.878;2023-04-24T00:05:28;7.50;;;6.60;;
39032;SDS011;24794;51.982;5.878;2023-04-24T00:06:29;6.47;;;5.70;;
39032;SDS011;24794;51.982;5.878;2023-04-24T00:07:33;8.02;;;6.38;;
39032;SDS011;24794;51.982;5.878;2023-04-24T00:08:34;9.75;;;6.63;;
39032;SDS011;24794;51.982;5.878;2023-04-24T00:09:36;7.38;;;6.13;;
39032;SDS011;24794;51.982;5.878;2023-04-24T00:10:36;7.97;;;6.20;;
39032;SDS011;24794;51.982;5.878;2023-04-24T00:11:37;9.15;;;6.45;;
39032;SDS011;24794;51.982;5.878;2023-04-24T00:12:38;7.50;;;6.80;;
39032;SDS011;24794;51.982;5.878;2023-04-24T00:13:39;7.15;;;6.45;;
39032;SDS011;24794;51.982;5.878;2023-04-24T00:14:39;8.38;;;6.25;;
39032;SDS011;24794;51.982;5.878;2023-04-24T00:15:40;7.15;;;6.22;;
39032;SDS011;24794;51.982;5.878;2023-04-24T00:16:40;9.70;;;6.13;;
39032;SDS011;24794;51.982;5.878;2023-04-24T00:17:41;7.05;;;6.25;;
39032;SDS011;24794;51.982;5.878;2023-04-24T00:18:42;6.90;;;5.88;;
39032;SDS011;24794;51.982;5.878;2023-04-24T00:19:42;7.78;;;6.50;;
39032;SDS011;24794;51.982;5.878;2023-04-24T00:20:43;7.93;;;6.35;;
39032;SDS011;24794;51.982;5.878;2023-04-24T00:21:43;6.10;;;5.50;;
39032;SDS011;24794;51.982;5.878;2023-04-24T00:22:44;7.03;;;5.40;;
39032;SDS011;24794;51.982;5.878;2023-04-24T00:23:44;7.47;;;5.00;;
39032;SDS011;24794;51.982;5.878;2023-04-24T00:24:45;7.80;;;5.28;;
39032;SDS011;24794;51.982;5.878;2023-04-24T00:25:46;4.93;;;4.43;;
39032;SDS011;24794;51.982;5.878;2023-04-24T00:26:46;4.72;;;3.88;;
39032;SDS011;24794;51.982;5.878;2023-04-24T00:27:47;4.97;;;4.00;;
39032;SDS011;24794;51.982;5.878;2023-04-24T00:28:47;4.28;;;3.78;;
39032;SDS011;24794;51.982;5.878;2023-04-24T00:29:48;3.20;;;2.80;;
39032;SDS011;24794;51.982;5.878;2023-04-24T00:30:49;3.97;;;2.60;;
39032;SDS011;24794;51.982;5.878;2023-04-24T00:31:49;4.68;;;2.80;;
39032;SDS011;24794;51.982;5.878;2023-04-24T00:32:50;3.78;;;2.50;;
39032;SDS011;24794;51.982;5.878;2023-04-24T00:33:51;2.30;;;2.10;;
39032;SDS011;24794;51.982;5.878;2023-04-24T00:34:52;3.17;;;2.58;;
39032;SDS011;24794;51.982;5.878;2023-04-24T00:35:52;2.90;;;2.60;;
39032;SDS011;24794;51.982;5.878;2023-04-24T00:36:53;2.65;;;2.40;;
39032;SDS011;24794;51.982;5.878;2023-04-24T00:37:53;2.58;;;1.88;;
39032;SDS011;24794;51.982;5.878;2023-04-24T00:38:54;2.83;;;2.17;;
39032;SDS011;24794;51.982;5.878;2023-04-24T00:39:55;2.67;;;2.10;;
39032;SDS011;24794;51.982;5.878;2023-04-24T00:40:55;4.95;;;2.50;;
39032;SDS011;24794;51.982;5.878;2023-04-24T00:41:56;5.30;;;2.30;;
39032;SDS011;24794;51.982;5.878;2023-04-24T00:42:57;1.98;;;1.70;;
39032;SDS011;24794;51.982;5.878;2023-04-24T00:43:57;4.32;;;2.50;;
39032;SDS011;24794;51.982;5.878;2023-04-24T00:44:58;3.03;;;2.30;;
39032;SDS011;24794;51.982;5.878;2023-04-24T00:45:59;2.38;;;2.00;;
39032;SDS011;24794;51.982;5.878;2023-04-24T00:47:01;2.53;;;2.30;;
39032;SDS011;24794;51.982;5.878;2023-04-24T00:48:02;2.53;;;1.92;;
39032;SDS011;24794;51.982;5.878;2023-04-24T00:49:04;2.55;;;2.35;;
39032;SDS011;24794;51.982;5.878;2023-04-24T00:50:06;2.78;;;2.58;;
39032;SDS011;24794;51.982;5.878;2023-04-24T00:51:07;3.70;;;2.53;;
39032;SDS011;24794;51.982;5.878;2023-04-24T00:52:07;4.07;;;2.47;;
39032;SDS011;24794;51.982;5.878;2023-04-24T00:53:08;3.78;;;2.55;;
39032;SDS011;24794;51.982;5.878;2023-04-24T00:54:09;4.22;;;3.22;;
39032;SDS011;24794;51.982;5.878;2023-04-24T00:55:10;3.80;;;2.65;;
39032;SDS011;24794;51.982;5.878;2023-04-24T00:56:11;4.03;;;3.03;;
39032;SDS011;24794;51.982;5.878;2023-04-24T00:57:12;5.35;;;3.25;;
39032;SDS011;24794;51.982;5.878;2023-04-24T00:58:14;3.42;;;3.13;;
39032;SDS011;24794;51.982;5.878;2023-04-24T00:59:18;5.05;;;3.40;;
39032;SDS011;24794;51.982;5.878;2023-04-24T01:00:18;4.43;;;3.72;;
39032;SDS011;24794;51.982;5.878;2023-04-24T01:01:20;3.95;;;3.50;;
39032;SDS011;24794;51.982;5.878;2023-04-24T01:02:21;3.95;;;3.55;;
39032;SDS011;24794;51.982;5.878;2023-04-24T01:03:25;7.15;;;5.10;;
39032;SDS011;24794;51.982;5.878;2023-04-24T01:04:28;6.18;;;4.40;;
39032;SDS011;24794;51.982;5.878;2023-04-24T01:05:29;4.60;;;4.10;;
39032;SDS011;24794;51.982;5.878;2023-04-24T01:06:30;4.45;;;4.05;;
39032;SDS011;24794;51.982;5.878;2023-04-24T01:07:31;4.90;;;4.40;;
39032;SDS011;24794;51.982;5.878;2023-04-24T01:08:31;6.07;;;4.68;;
39032;SDS011;24794;51.982;5.878;2023-04-24T01:09:34;5.30;;;4.80;;
39032;SDS011;24794;51.982;5.878;2023-04-24T01:10:36;6.20;;;5.18;;
39032;SDS011;24794;51.982;5.878;2023-04-24T01:11:40;7.97;;;5.63;;
39032;SDS011;24794;51.982;5.878;2023-04-24T01:12:42;8.68;;;6.85;;
39032;SDS011;24794;51.982;5.878;2023-04-24T01:13:43;9.52;;;6.53;;
39032;SDS011;24794;51.982;5.878;2023-04-24T01:14:45;7.55;;;6.57;;
39032;SDS011;24794;51.982;5.878;2023-04-24T01:15:46;11.90;;;9.02;;
39032;SDS011;24794;51.982;5.878;2023-04-24T01:16:47;11.32;;;9.85;;
39032;SDS011;24794;51.982;5.878;2023-04-24T01:17:47;13.27;;;8.57;;
39032;SDS011;24794;51.982;5.878;2023-04-24T01:18:48;14.02;;;10.85;;
39032;SDS011;24794;51.982;5.878;2023-04-24T01:19:48;12.10;;;9.55;;
39032;SDS011;24794;51.982;5.878;2023-04-24T01:20:49;16.00;;;11.43;;
39032;SDS011;24794;51.982;5.878;2023-04-24T01:21:54;16.67;;;12.15;;
39032;SDS011;24794;51.982;5.878;2023-04-24T01:22:58;15.55;;;12.57;;
39032;SDS011;24794;51.982;5.878;2023-04-24T01:23:58;17.55;;;12.60;;
39032;SDS011;24794;51.982;5.878;2023-04-24T01:24:59;20.23;;;13.10;;
39032;SDS011;24794;51.982;5.878;2023-04-24T01:26:00;17.45;;;13.77;;
39032;SDS011;24794;51.982;5.878;2023-04-24T01:27:00;19.55;;;13.60;;
39032;SDS011;24794;51.982;5.878;2023-04-24T01:28:01;18.40;;;13.38;;
39032;SDS011;24794;51.982;5.878;2023-04-24T01:29:02;18.42;;;13.10;;
39032;SDS011;24794;51.982;5.878;2023-04-24T01:30:03;21.17;;;14.77;;
39032;SDS011;24794;51.982;5.878;2023-04-24T01:31:04;20.85;;;14.82;;
39032;SDS011;24794;51.982;5.878;2023-04-24T01:32:05;22.10;;;14.32;;
39032;SDS011;24794;51.982;5.878;2023-04-24T01:33:06;18.52;;;13.52;;
39032;SDS011;24794;51.982;5.878;2023-04-24T01:34:07;21.35;;;14.43;;
39032;SDS011;24794;51.982;5.878;2023-04-24T01:35:08;21.02;;;13.82;;
39032;SDS011;24794;51.982;5.878;2023-04-24T01:36:10;20.15;;;13.65;;
39032;SDS011;24794;51.982;5.878;2023-04-24T01:37:11;19.35;;;14.32;;
39032;SDS011;24794;51.982;5.878;2023-04-24T01:38:11;18.23;;;13.25;;
39032;SDS011;24794;51.982;5.878;2023-04-24T01:39:12;17.48;;;12.15;;
39032;SDS011;24794;51.982;5.878;2023-04-24T01:40:13;17.80;;;12.52;;
39032;SDS011;24794;51.982;5.878;2023-04-24T01:41:14;18.05;;;12.88;;
39032;SDS011;24794;51.982;5.878;2023-04-24T01:42:15;17.85;;;12.20;;
39032;SDS011;24794;51.982;5.878;2023-04-24T01:43:16;15.88;;;11.15;;
39032;SDS011;24794;51.982;5.878;2023-04-24T01:44:17;16.50;;;9.93;;
39032;SDS011;24794;51.982;5.878;2023-04-24T01:45:18;14.55;;;10.23;;
39032;SDS011;24794;51.982;5.878;2023-04-24T01:46:19;14.55;;;9.55;;
39032;SDS011;24794;51.982;5.878;2023-04-24T01:47:19;12.93;;;9.38;;
39032;SDS011;24794;51.982;5.878;2023-04-24T01:48:20;14.07;;;9.45;;
39032;SDS011;24794;51.982;5.878;2023-04-24T01:49:22;14.75;;;9.00;;
39032;SDS011;24794;51.982;5.878;2023-04-24T01:50:22;13.25;;;8.10;;
39032;SDS011;24794;51.982;5.878;2023-04-24T01:51:23;11.45;;;8.07;;
39032;SDS011;24794;51.982;5.878;2023-04-24T01:52:24;10.38;;;6.80;;
39032;SDS011;24794;51.982;5.878;2023-04-24T01:53:24;8.70;;;7.10;;
39032;SDS011;24794;51.982;5.878;2023-04-24T01:54:25;12.15;;;7.40;;
39032;SDS011;24794;51.982;5.878;2023-04-24T01:55:25;8.43;;;6.80;;
39032;SDS011;24794;51.982;5.878;2023-04-24T01:56:26;12.50;;;8.25;;
39032;SDS011;24794;51.982;5.878;2023-04-24T01:57:30;9.80;;;7.60;;
39032;SDS011;24794;51.982;5.878;2023-04-24T01:58:31;10.88;;;7.90;;
39032;SDS011;24794;51.982;5.878;2023-04-24T01:59:32;11.43;;;8.50;;
39032;SDS011;24794;51.982;5.878;2023-04-24T02:00:34;10.65;;;7.97;;
39032;SDS011;24794;51.982;5.878;2023-04-24T02:01:35;13.88;;;9.18;;
39032;SDS011;24794;51.982;5.878;2023-04-24T02:02:36;16.27;;;10.95;;
39032;SDS011;24794;51.982;5.878;2023-04-24T02:03:37;12.90;;;9.70;;
39032;SDS011;24794;51.982;5.878;2023-04-24T02:04:37;14.75;;;9.73;;
39032;SDS011;24794;51.982;5.878;2023-04-24T02:05:39;11.23;;;8.38;;
39032;SDS011;24794;51.982;5.878;2023-04-24T02:06:39;13.63;;;8.80;;
39032;SDS011;24794;51.982;5.878;2023-04-24T02:07:40;11.88;;;8.38;;
39032;SDS011;24794;51.982;5.878;2023-04-24T02:08:41;16.90;;;11.55;;
39032;SDS011;24794;51.982;5.878;2023-04-24T02:09:41;17.35;;;12.15;;
39032;SDS011;24794;51.982;5.878;2023-04-24T02:10:42;18.52;;;13.27;;
39032;SDS011;24794;51.982;5.878;2023-04-24T02:11:42;17.23;;;11.20;;
39032;SDS011;24794;51.982;5.878;2023-04-24T02:12:43;14.55;;;11.13;;
39032;SDS011;24794;51.982;5.878;2023-04-24T02:13:44;19.42;;;12.88;;
39032;SDS011;24794;51.982;5.878;2023-04-24T02:14:44;19.80;;;13.60;;
39032;SDS011;24794;51.982;5.878;2023-04-24T02:15:45;20.98;;;14.73;;
39032;SDS011;24794;51.982;5.878;2023-04-24T02:16:45;23.90;;;14.88;;
39032;SDS011;24794;51.982;5.878;2023-04-24T02:17:46;19.83;;;15.82;;
39032;SDS011;24794;51.982;5.878;2023-04-24T02:18:46;21.25;;;15.90;;
39032;SDS011;24794;51.982;5.878;2023-04-24T02:19:47;24.85;;;16.85;;
39032;SDS011;24794;51.982;5.878;2023-04-24T02:20:48;33.40;;;23.20;;
39032;SDS011;24794;51.982;5.878;2023-04-24T02:21:48;29.40;;;22.80;;
39032;SDS011;24794;51.982;5.878;2023-04-24T02:22:49;35.50;;;23.60;;
39032;SDS011;24794;51.982;5.878;2023-04-24T02:23:49;26.15;;;20.65;;
39032;SDS011;24794;51.982;5.878;2023-04-24T02:24:56;31.17;;;20.70;;
39032;SDS011;24794;51.982;5.878;2023-04-24T02:25:56;25.50;;;19.85;;
39032;SDS011;24794;51.982;5.878;2023-04-24T02:26:57;29.73;;;20.92;;
39032;SDS011;24794;51.982;5.878;2023-04-24T02:27:57;35.53;;;24.80;;
39032;SDS011;24794;51.982;5.878;2023-04-24T02:28:58;35.47;;;24.63;;
39032;SDS011;24794;51.982;5.878;2023-04-24T02:29:58;33.50;;;23.63;;
39032;SDS011;24794;51.982;5.878;2023-04-24T02:30:59;33.50;;;24.88;;
39032;SDS011;24794;51.982;5.878;2023-04-24T02:32:00;32.45;;;23.95;;
39032;SDS011;24794;51.982;5.878;2023-04-24T02:33:00;38.10;;;25.88;;
39032;SDS011;24794;51.982;5.878;2023-04-24T02:34:01;36.33;;;25.70;;
39032;SDS011;24794;51.982;5.878;2023-04-24T02:35:02;34.28;;;24.17;;
39032;SDS011;24794;51.982;5.878;2023-04-24T02:36:03;37.88;;;24.73;;
39032;SDS011;24794;51.982;5.878;2023-04-24T02:37:03;34.17;;;24.48;;
39032;SDS011;24794;51.982;5.878;2023-04-24T02:38:04;34.70;;;23.48;;
39032;SDS011;24794;51.982;5.878;2023-04-24T02:39:05;35.05;;;24.02;;
39032;SDS011;24794;51.982;5.878;2023-04-24T02:40:05;36.92;;;25.00;;
39032;SDS011;24794;51.982;5.878;2023-04-24T02:41:07;35.42;;;25.23;;
39032;SDS011;24794;51.982;5.878;2023-04-24T02:42:07;34.85;;;23.67;;
39032;SDS011;24794;51.982;5.878;2023-04-24T02:43:08;37.30;;;24.83;;
39032;SDS011;24794;51.982;5.878;2023-04-24T02:44:09;37.38;;;23.88;;
39032;SDS011;24794;51.982;5.878;2023-04-24T02:45:10;33.05;;;23.08;;
39032;SDS011;24794;51.982;5.878;2023-04-24T02:46:10;38.13;;;25.02;;
39032;SDS011;24794;51.982;5.878;2023-04-24T02:47:11;35.38;;;24.08;;
39032;SDS011;24794;51.982;5.878;2023-04-24T02:48:11;29.85;;;21.58;;
39032;SDS011;24794;51.982;5.878;2023-04-24T02:49:12;30.90;;;22.13;;
39032;SDS011;24794;51.982;5.878;2023-04-24T02:50:13;35.13;;;23.35;;
39032;SDS011;24794;51.982;5.878;2023-04-24T02:51:13;32.67;;;22.45;;
39032;SDS011;24794;51.982;5.878;2023-04-24T02:52:14;29.15;;;21.40;;
39032;SDS011;24794;51.982;5.878;2023-04-24T02:53:15;29.58;;;21.05;;
39032;SDS011;24794;51.982;5.878;2023-04-24T02:54:15;29.25;;;22.80;;
39032;SDS011;24794;51.982;5.878;2023-04-24T02:55:16;29.58;;;21.80;;
39032;SDS011;24794;51.982;5.878;2023-04-24T02:56:17;30.35;;;22.05;;
39032;SDS011;24794;51.982;5.878;2023-04-24T02:57:17;34.67;;;23.63;;
39032;SDS011;24794;51.982;5.878;2023-04-24T02:58:18;28.48;;;21.58;;
39032;SDS011;24794;51.982;5.878;2023-04-24T02:59:19;30.40;;;20.65;;
39032;SDS011;24794;51.982;5.878;2023-04-24T03:00:20;29.35;;;20.60;;
39032;SDS011;24794;51.982;5.878;2023-04-24T03:01:21;32.13;;;23.48;;
39032;SDS011;24794;51.982;5.878;2023-04-24T03:02:21;31.40;;;21.60;;
39032;SDS011;24794;51.982;5.878;2023-04-24T03:03:22;28.63;;;20.75;;
39032;SDS011;24794;51.982;5.878;2023-04-24T03:04:23;31.92;;;21.35;;
39032;SDS011;24794;51.982;5.878;2023-04-24T03:05:24;32.33;;;22.73;;
39032;SDS011;24794;51.982;5.878;2023-04-24T03:06:24;32.70;;;21.60;;
39032;SDS011;24794;51.982;5.878;2023-04-24T03:07:26;33.45;;;22.05;;
39032;SDS011;24794;51.982;5.878;2023-04-24T03:08:27;30.13;;;21.27;;
39032;SDS011;24794;51.982;5.878;2023-04-24T03:09:27;32.20;;;21.58;;
39032;SDS011;24794;51.982;5.878;2023-04-24T03:10:28;32.67;;;22.35;;
39032;SDS011;24794;51.982;5.878;2023-04-24T03:11:29;36.20;;;23.20;;
39032;SDS011;24794;51.982;5.878;2023-04-24T03:12:29;38.65;;;23.45;;
39032;SDS011;24794;51.982;5.878;2023-04-24T03:13:30;31.08;;;21.52;;
39032;SDS011;24794;51.982;5.878;2023-04-24T03:14:30;35.30;;;23.00;;
39032;SDS011;24794;51.982;5.878;2023-04-24T03:15:31;31.85;;;21.23;;
39032;SDS011;24794;51.982;5.878;2023-04-24T03:16:31;29.30;;;19.77;;
39032;SDS011;24794;51.982;5.878;2023-04-24T03:17:32;34.60;;;22.05;;
39032;SDS011;24794;51.982;5.878;2023-04-24T03:18:33;31.25;;;20.73;;
39032;SDS011;24794;51.982;5.878;2023-04-24T03:19:34;28.75;;;20.50;;
39032;SDS011;24794;51.982;5.878;2023-04-24T03:20:34;32.45;;;21.65;;
39032;SDS011;24794;51.982;5.878;2023-04-24T03:21:36;35.30;;;22.45;;
39032;SDS011;24794;51.982;5.878;2023-04-24T03:22:40;34.63;;;22.33;;
39032;SDS011;24794;51.982;5.878;2023-04-24T03:23:41;30.92;;;20.27;;
39032;SDS011;24794;51.982;5.878;2023-04-24T03:24:41;34.88;;;21.13;;
39032;SDS011;24794;51.982;5.878;2023-04-24T03:25:42;30.75;;;20.92;;
39032;SDS011;24794;51.982;5.878;2023-04-24T03:26:42;31.05;;;21.98;;
39032;SDS011;24794;51.982;5.878;2023-04-24T03:27:43;32.63;;;22.55;;
39032;SDS011;24794;51.982;5.878;2023-04-24T03:28:43;33.40;;;20.92;;
39032;SDS011;24794;51.982;5.878;2023-04-24T03:29:44;34.85;;;22.88;;
39032;SDS011;24794;51.982;5.878;2023-04-24T03:30:45;37.53;;;23.20;;
39032;SDS011;24794;51.982;5.878;2023-04-24T03:31:45;34.72;;;22.90;;
39032;SDS011;24794;51.982;5.878;2023-04-24T03:32:46;28.60;;;21.25;;
39032;SDS011;24794;51.982;5.878;2023-04-24T03:33:46;33.42;;;22.05;;
39032;SDS011;24794;51.982;5.878;2023-04-24T03:34:47;35.97;;;24.02;;
39032;SDS011;24794;51.982;5.878;2023-04-24T03:35:48;32.38;;;22.50;;
39032;SDS011;24794;51.982;5.878;2023-04-24T03:36:49;33.40;;;23.67;;
39032;SDS011;24794;51.982;5.878;2023-04-24T03:37:49;36.97;;;24.83;;
39032;SDS011;24794;51.982;5.878;2023-04-24T03:38:50;35.17;;;24.58;;
39032;SDS011;24794;51.982;5.878;2023-04-24T03:39:50;39.75;;;25.58;;
39032;SDS011;24794;51.982;5.878;2023-04-24T03:40:51;38.25;;;25.65;;
39032;SDS011;24794;51.982;5.878;2023-04-24T03:41:52;36.45;;;24.40;;
39032;SDS011;24794;51.982;5.878;2023-04-24T03:42:52;37.35;;;24.10;;
39032;SDS011;24794;51.982;5.878;2023-04-24T03:43:53;35.13;;;25.63;;
39032;SDS011;24794;51.982;5.878;2023-04-24T03:44:53;38.60;;;25.10;;
39032;SDS011;24794;51.982;5.878;2023-04-24T03:45:54;38.33;;;27.00;;
39032;SDS011;24794;51.982;5.878;2023-04-24T03:46:54;41.95;;;28.60;;
39032;SDS011;24794;51.982;5.878;2023-04-24T03:47:55;40.20;;;27.05;;
39032;SDS011;24794;51.982;5.878;2023-04-24T03:48:55;42.58;;;28.52;;
39032;SDS011;24794;51.982;5.878;2023-04-24T03:49:56;44.03;;;29.10;;
39032;SDS011;24794;51.982;5.878;2023-04-24T03:50:57;45.42;;;29.08;;
39032;SDS011;24794;51.982;5.878;2023-04-24T03:51:57;45.55;;;30.55;;
39032;SDS011;24794;51.982;5.878;2023-04-24T03:52:58;49.78;;;31.85;;
39032;SDS011;24794;51.982;5.878;2023-04-24T03:53:58;47.65;;;32.25;;
39032;SDS011;24794;51.982;5.878;2023-04-24T03:54:59;44.92;;;30.98;;
39032;SDS011;24794;51.982;5.878;2023-04-24T03:55:59;49.90;;;34.05;;
39032;SDS011;24794;51.982;5.878;2023-04-24T03:57:00;52.22;;;32.38;;
39032;SDS011;24794;51.982;5.878;2023-04-24T03:58:01;50.35;;;32.22;;
39032;SDS011;24794;51.982;5.878;2023-04-24T03:59:02;47.22;;;32.30;;
39032;SDS011;24794;51.982;5.878;2023-04-24T04:00:02;52.95;;;34.55;;
39032;SDS011;24794;51.982;5.878;2023-04-24T04:01:04;47.92;;;31.60;;
39032;SDS011;24794;51.982;5.878;2023-04-24T04:02:05;49.63;;;33.28;;
39032;SDS011;24794;51.982;5.878;2023-04-24T04:03:06;49.22;;;33.38;;
39032;SDS011;24794;51.982;5.878;2023-04-24T04:04:06;48.20;;;33.05;;
39032;SDS011;24794;51.982;5.878;2023-04-24T04:05:08;43.75;;;31.63;;
39032;SDS011;24794;51.982;5.878;2023-04-24T04:06:08;52.00;;;33.88;;
39032;SDS011;24794;51.982;5.878;2023-04-24T04:07:11;49.53;;;33.65;;
39032;SDS011;24794;51.982;5.878;2023-04-24T04:08:12;55.28;;;37.13;;
39032;SDS011;24794;51.982;5.878;2023-04-24T04:09:13;44.97;;;32.90;;
39032;SDS011;24794;51.982;5.878;2023-04-24T04:10:14;49.70;;;33.72;;
39032;SDS011;24794;51.982;5.878;2023-04-24T04:11:14;55.22;;;35.17;;
39032;SDS011;24794;51.982;5.878;2023-04-24T04:12:15;52.17;;;36.13;;
39032;SDS011;24794;51.982;5.878;2023-04-24T04:13:15;47.28;;;32.38;;
39032;SDS011;24794;51.982;5.878;2023-04-24T04:14:16;48.40;;;32.95;;
39032;SDS011;24794;51.982;5.878;2023-04-24T04:15:16;44.08;;;30.25;;
39032;SDS011;24794;51.982;5.878;2023-04-24T04:16:17;48.83;;;34.22;;
39032;SDS011;24794;51.982;5.878;2023-04-24T04:17:17;44.65;;;31.15;;
39032;SDS011;24794;51.982;5.878;2023-04-24T04:18:18;52.83;;;33.63;;
39032;SDS011;24794;51.982;5.878;2023-04-24T04:19:18;52.15;;;34.15;;
39032;SDS011;24794;51.982;5.878;2023-04-24T04:20:19;49.92;;;33.53;;
39032;SDS011;24794;51.982;5.878;2023-04-24T04:21:19;47.30;;;33.78;;
39032;SDS011;24794;51.982;5.878;2023-04-24T04:22:20;44.47;;;30.38;;
39032;SDS011;24794;51.982;5.878;2023-04-24T04:23:21;41.72;;;30.30;;
39032;SDS011;24794;51.982;5.878;2023-04-24T04:24:21;50.13;;;32.35;;
39032;SDS011;24794;51.982;5.878;2023-04-24T04:25:22;47.72;;;32.47;;
39032;SDS011;24794;51.982;5.878;2023-04-24T04:26:23;47.15;;;30.65;;
39032;SDS011;24794;51.982;5.878;2023-04-24T04:27:25;40.45;;;29.08;;
39032;SDS011;24794;51.982;5.878;2023-04-24T04:28:26;44.97;;;29.92;;
39032;SDS011;24794;51.982;5.878;2023-04-24T04:29:27;41.88;;;28.38;;
39032;SDS011;24794;51.982;5.878;2023-04-24T04:30:27;41.72;;;28.77;;
39032;SDS011;24794;51.982;5.878;2023-04-24T04:31:29;42.45;;;28.42;;
39032;SDS011;24794;51.982;5.878;2023-04-24T04:32:31;44.10;;;31.60;;
39032;SDS011;24794;51.982;5.878;2023-04-24T04:33:33;44.45;;;29.88;;
39032;SDS011;24794;51.982;5.878;2023-04-24T04:34:35;40.42;;;28.33;;
39032;SDS011;24794;51.982;5.878;2023-04-24T04:35:37;43.05;;;28.77;;
39032;SDS011;24794;51.982;5.878;2023-04-24T04:36:38;43.45;;;28.92;;
39032;SDS011;24794;51.982;5.878;2023-04-24T04:37:40;38.80;;;26.38;;
39032;SDS011;24794;51.982;5.878;2023-04-24T04:38:40;38.90;;;27.95;;
39032;SDS011;24794;51.982;5.878;2023-04-24T04:39:42;35.45;;;25.48;;
39032;SDS011;24794;51.982;5.878;2023-04-24T04:40:43;37.78;;;26.27;;
39032;SDS011;24794;51.982;5.878;2023-04-24T04:41:44;31.90;;;24.00;;
39032;SDS011;24794;51.982;5.878;2023-04-24T04:42:48;34.17;;;24.77;;
39032;SDS011;24794;51.982;5.878;2023-04-24T04:43:52;39.72;;;28.70;;
39032;SDS011;24794;51.982;5.878;2023-04-24T04:44:53;38.42;;;27.05;;
39032;SDS011;24794;51.982;5.878;2023-04-24T04:45:54;33.67;;;24.10;;
39032;SDS011;24794;51.982;5.878;2023-04-24T04:46:55;35.63;;;24.05;;
39032;SDS011;24794;51.982;5.878;2023-04-24T04:47:56;33.42;;;24.42;;
39032;SDS011;24794;51.982;5.878;2023-04-24T04:48:57;30.23;;;22.92;;
39032;SDS011;24794;51.982;5.878;2023-04-24T04:49:58;33.53;;;22.77;;
39032;SDS011;24794;51.982;5.878;2023-04-24T04:50:59;30.40;;;22.63;;
39032;SDS011;24794;51.982;5.878;2023-04-24T04:52:00;35.50;;;26.63;;
39032;SDS011;24794;51.982;5.878;2023-04-24T04:53:00;33.92;;;24.95;;
39032;SDS011;24794;51.982;5.878;2023-04-24T04:54:01;33.85;;;24.27;;
39032;SDS011;24794;51.982;5.878;2023-04-24T04:55:02;34.13;;;25.23;;
39032;SDS011;24794;51.982;5.878;2023-04-24T04:56:02;33.17;;;23.20;;
39032;SDS011;24794;51.982;5.878;2023-04-24T04:57:03;36.40;;;26.50;;
39032;SDS011;24794;51.982;5.878;2023-04-24T04:58:04;34.03;;;25.17;;
39032;SDS011;24794;51.982;5.878;2023-04-24T04:59:04;33.60;;;24.50;;
39032;SDS011;24794;51.982;5.878;2023-04-24T05:00:06;35.15;;;26.05;;
39032;SDS011;24794;51.982;5.878;2023-04-24T05:01:10;37.55;;;26.60;;
39032;SDS011;24794;51.982;5.878;2023-04-24T05:02:10;36.60;;;25.13;;
39032;SDS011;24794;51.982;5.878;2023-04-24T05:03:11;31.95;;;24.55;;
39032;SDS011;24794;51.982;5.878;2023-04-24T05:04:12;31.98;;;24.60;;
39032;SDS011;24794;51.982;5.878;2023-04-24T05:05:12;31.63;;;23.25;;
39032;SDS011;24794;51.982;5.878;2023-04-24T05:06:13;36.53;;;23.88;;
39032;SDS011;24794;51.982;5.878;2023-04-24T05:07:13;35.00;;;24.73;;
39032;SDS011;24794;51.982;5.878;2023-04-24T05:08:14;34.78;;;25.02;;
39032;SDS011;24794;51.982;5.878;2023-04-24T05:09:14;37.95;;;26.38;;
39032;SDS011;24794;51.982;5.878;2023-04-24T05:10:15;35.17;;;25.02;;
39032;SDS011;24794;51.982;5.878;2023-04-24T05:11:16;32.13;;;23.67;;
39032;SDS011;24794;51.982;5.878;2023-04-24T05:12:16;38.28;;;25.92;;
39032;SDS011;24794;51.982;5.878;2023-04-24T05:13:17;36.78;;;26.88;;
39032;SDS011;24794;51.982;5.878;2023-04-24T05:14:17;35.53;;;24.13;;
39032;SDS011;24794;51.982;5.878;2023-04-24T05:15:18;34.10;;;24.88;;
39032;SDS011;24794;51.982;5.878;2023-04-24T05:16:19;33.20;;;23.40;;
39032;SDS011;24794;51.982;5.878;2023-04-24T05:17:20;38.67;;;25.13;;
39032;SDS011;24794;51.982;5.878;2023-04-24T05:18:23;30.73;;;21.15;;
39032;SDS011;24794;51.982;5.878;2023-04-24T05:19:24;36.20;;;24.83;;
39032;SDS011;24794;51.982;5.878;2023-04-24T05:20:24;34.63;;;23.80;;
39032;SDS011;24794;51.982;5.878;2023-04-24T05:21:25;38.92;;;26.30;;
39032;SDS011;24794;51.982;5.878;2023-04-24T05:22:26;32.95;;;24.58;;
39032;SDS011;24794;51.982;5.878;2023-04-24T05:23:27;33.83;;;24.70;;
39032;SDS011;24794;51.982;5.878;2023-04-24T05:24:27;30.38;;;24.05;;
39032;SDS011;24794;51.982;5.878;2023-04-24T05:25:28;32.03;;;24.10;;
39032;SDS011;24794;51.982;5.878;2023-04-24T05:26:28;35.25;;;25.67;;
39032;SDS011;24794;51.982;5.878;2023-04-24T05:27:29;37.42;;;24.50;;
39032;SDS011;24794;51.982;5.878;2023-04-24T05:28:30;34.08;;;24.13;;
39032;SDS011;24794;51.982;5.878;2023-04-24T05:29:30;30.95;;;22.88;;
39032;SDS011;24794;51.982;5.878;2023-04-24T05:30:31;33.78;;;23.90;;
39032;SDS011;24794;51.982;5.878;2023-04-24T05:31:32;32.00;;;21.88;;
39032;SDS011;24794;51.982;5.878;2023-04-24T05:32:32;30.52;;;22.58;;
39032;SDS011;24794;51.982;5.878;2023-04-24T05:33:33;30.02;;;22.70;;
39032;SDS011;24794;51.982;5.878;2023-04-24T05:34:33;33.45;;;23.55;;
39032;SDS011;24794;51.982;5.878;2023-04-24T05:35:34;29.67;;;21.08;;
39032;SDS011;24794;51.982;5.878;2023-04-24T05:36:35;27.33;;;19.85;;
39032;SDS011;24794;51.982;5.878;2023-04-24T05:37:35;25.95;;;19.40;;
39032;SDS011;24794;51.982;5.878;2023-04-24T05:38:36;26.92;;;19.77;;
39032;SDS011;24794;51.982;5.878;2023-04-24T05:39:37;26.50;;;19.10;;
39032;SDS011;24794;51.982;5.878;2023-04-24T05:40:38;25.58;;;18.92;;
39032;SDS011;24794;51.982;5.878;2023-04-24T05:41:39;25.35;;;19.00;;
39032;SDS011;24794;51.982;5.878;2023-04-24T05:42:39;28.85;;;19.80;;
39032;SDS011;24794;51.982;5.878;2023-04-24T05:43:40;25.42;;;18.80;;
39032;SDS011;24794;51.982;5.878;2023-04-24T05:44:40;23.98;;;17.10;;
39032;SDS011;24794;51.982;5.878;2023-04-24T05:45:41;22.55;;;17.52;;
39032;SDS011;24794;51.982;5.878;2023-04-24T05:46:41;22.38;;;17.77;;
39032;SDS011;24794;51.982;5.878;2023-04-24T05:47:42;23.95;;;17.35;;
39032;SDS011;24794;51.982;5.878;2023-04-24T05:48:43;22.90;;;16.58;;
39032;SDS011;24794;51.982;5.878;2023-04-24T05:49:44;21.80;;;15.68;;
39032;SDS011;24794;51.982;5.878;2023-04-24T05:50:44;22.45;;;16.15;;
39032;SDS011;24794;51.982;5.878;2023-04-24T05:51:47;22.15;;;15.75;;
39032;SDS011;24794;51.982;5.878;2023-04-24T05:52:47;18.13;;;14.43;;
39032;SDS011;24794;51.982;5.878;2023-04-24T05:53:48;24.48;;;15.75;;
39032;SDS011;24794;51.982;5.878;2023-04-24T05:54:48;21.38;;;15.75;;
39032;SDS011;24794;51.982;5.878;2023-04-24T05:55:49;18.65;;;14.13;;
39032;SDS011;24794;51.982;5.878;2023-04-24T05:56:50;20.63;;;15.68;;
39032;SDS011;24794;51.982;5.878;2023-04-24T05:57:51;21.25;;;15.35;;
39032;SDS011;24794;51.982;5.878;2023-04-24T05:58:51;20.70;;;15.43;;